Time;durP1;ratioP1;P1;durP2;ratioP2;P2;SDS_P1;SDS_P2;PMS_P1;PMS_P2;Temp;Humidity;BMP_temperature;BMP_pressure;BME280_temperature;BME280_humidity;BME280_pressure;Samples;Min_cycle;Max_cycle;Signal;HPM_P1;HPM_P2
2021/06/14 00:00:39;;;;;;;0.00;0.00;;;23.20;60.30;;;;;;4207884;28;20562;-46
2021/06/14 00:03:01;;;;;;;0.00;0.00;;;23.20;60.30;;;;;;4221978;28;20100;-45
2021/06/14 00:05:31;;;;;;;0.22;0.22;;;23.20;60.30;;;;;;4226097;28;20522;-46
2021/06/14 00:07:53;;;;;;;0.00;0.00;;;23.20;60.40;;;;;;4225589;28;20053;-46
2021/06/14 00:10:19;;;;;;;0.22;0.22;;;23.20;60.40;;;;;;4225610;28;20051;-48
2021/06/14 00:12:41;;;;;;;2.38;1.55;;;23.20;60.40;;;;;;4225665;28;20059;-45
2021/06/14 00:15:05;;;;;;;0.00;0.00;;;23.20;60.50;;;;;;4225693;28;20044;-46
2021/06/14 00:17:27;;;;;;;0.00;0.00;;;23.20;60.50;;;;;;4225730;28;20054;-47
2021/06/14 00:19:49;;;;;;;0.00;0.00;;;23.20;60.60;;;;;;4225809;28;20425;-49
2021/06/14 00:22:11;;;;;;;0.00;0.00;;;23.10;60.60;;;;;;4225848;28;20438;-48
2021/06/14 00:24:33;;;;;;;0.00;0.00;;;23.10;60.50;;;;;;4225787;28;20043;-49
2021/06/14 00:26:57;;;;;;;0.03;0.03;;;23.10;60.60;;;;;;4225612;28;20058;-47
2021/06/14 00:29:19;;;;;;;0.10;0.10;;;23.10;60.60;;;;;;4225372;28;20054;-45
2021/06/14 00:31:41;;;;;;;0.03;0.03;;;23.10;60.60;;;;;;4224921;28;20071;-48
2021/06/14 00:34:03;;;;;;;0.20;0.20;;;23.10;60.60;;;;;;4225754;28;20059;-47
2021/06/14 00:36:25;;;;;;;0.00;0.00;;;23.10;60.70;;;;;;4225396;28;20063;-47
2021/06/14 00:38:48;;;;;;;0.00;0.00;;;23.10;60.70;;;;;;4224604;27;20047;-47
2021/06/14 00:41:11;;;;;;;0.03;0.03;;;23.10;60.70;;;;;;4225830;28;20054;-50
2021/06/14 00:43:36;;;;;;;0.00;0.00;;;23.10;60.80;;;;;;4226034;27;20048;-46
2021/06/14 00:45:58;;;;;;;0.00;0.00;;;23.00;60.80;;;;;;4223972;28;20082;-49
2021/06/14 00:48:22;;;;;;;1.13;0.63;;;23.00;60.80;;;;;;4225708;27;20058;-47
2021/06/14 00:50:47;;;;;;;0.10;0.10;;;23.00;60.80;;;;;;4211595;27;20066;-46
2021/06/14 00:53:11;;;;;;;0.00;0.00;;;23.00;61.00;;;;;;4225572;28;20055;-50
2021/06/14 00:55:34;;;;;;;0.00;0.00;;;23.00;60.90;;;;;;4225801;27;20120;-48
2021/06/14 00:57:56;;;;;;;0.10;0.10;;;23.00;60.90;;;;;;4223402;28;20040;-45
2021/06/14 01:00:22;;;;;;;0.10;0.10;;;23.00;60.80;;;;;;4225168;28;20069;-45
2021/06/14 01:02:50;;;;;;;0.08;0.08;;;23.00;60.80;;;;;;4224709;27;20483;-48
2021/06/14 01:05:13;;;;;;;0.00;0.00;;;23.00;60.90;;;;;;4225619;27;20082;-47
2021/06/14 01:07:37;;;;;;;0.00;0.00;;;22.90;60.80;;;;;;4225608;28;20047;-45
2021/06/14 01:09:59;;;;;;;0.00;0.00;;;22.90;60.90;;;;;;4225518;27;20436;-46
2021/06/14 01:12:27;;;;;;;0.60;0.60;;;22.90;60.90;;;;;;4223685;28;20134;-48
2021/06/14 01:14:55;;;;;;;0.00;0.00;;;22.90;60.90;;;;;;4223716;28;20417;-46
2021/06/14 01:17:26;;;;;;;0.00;0.00;;;22.90;60.90;;;;;;4218082;28;20047;-48
2021/06/14 01:20:03;;;;;;;;;;;22.90;60.90;;;;;;4225551;28;20570;-44
2021/06/14 01:23:01;;;;;;;0.30;0.30;;;22.90;61.00;;;;;;4223825;28;20755;-47
2021/06/14 01:25:30;;;;;;;0.20;0.20;;;22.80;61.80;;;;;;4224366;27;20051;-46
2021/06/14 01:27:56;;;;;;;0.08;0.08;;;22.90;61.00;;;;;;4224813;28;20048;-45
2021/06/14 01:30:20;;;;;;;0.00;0.00;;;22.80;61.90;;;;;;4225386;28;20117;-46
2021/06/14 01:32:45;;;;;;;0.00;0.00;;;22.80;61.00;;;;;;4223215;28;20044;-44
2021/06/14 01:35:10;;;;;;;0.00;0.00;;;22.80;61.00;;;;;;4225194;27;20039;-45
2021/06/14 01:37:33;;;;;;;0.20;0.20;;;22.80;61.00;;;;;;4223965;28;20120;-45
2021/06/14 01:39:57;;;;;;;0.35;0.22;;;22.80;61.00;;;;;;4223670;28;20044;-47
2021/06/14 01:42:21;;;;;;;0.00;0.00;;;22.80;61.10;;;;;;4223347;28;20052;-45
2021/06/14 01:44:49;;;;;;;0.00;0.00;;;22.70;61.00;;;;;;4208738;28;20047;-45
2021/06/14 01:47:14;;;;;;;0.00;0.00;;;22.70;61.10;;;;;;4224320;28;20043;-44
2021/06/14 01:49:37;;;;;;;0.00;0.00;;;22.80;61.10;;;;;;4224307;28;20059;-48
2021/06/14 01:52:09;;;;;;;0.10;0.10;;;22.70;61.10;;;;;;4208331;28;20121;-47
2021/06/14 01:54:31;;;;;;;0.00;0.00;;;22.70;61.20;;;;;;4208959;28;20570;-45
2021/06/14 01:56:58;;;;;;;0.00;0.00;;;22.60;61.20;;;;;;4209161;28;20055;-45
2021/06/14 01:59:35;;;;;;;0.05;0.05;;;22.70;61.40;;;;;;4209015;28;20685;-46
2021/06/14 02:02:07;;;;;;;0.00;0.00;;;22.70;62.20;;;;;;4208677;28;20414;-47
2021/06/14 02:04:36;;;;;;;0.00;0.00;;;22.70;61.40;;;;;;4224204;28;20043;-48
2021/06/14 02:07:04;;;;;;;2.47;1.90;;;22.60;61.40;;;;;;4224004;28;20562;-46
2021/06/14 02:09:27;;;;;;;0.00;0.00;;;22.60;61.30;;;;;;4224543;28;20063;-47
2021/06/14 02:11:53;;;;;;;0.10;0.10;;;22.60;61.30;;;;;;4223388;28;20079;-47
2021/06/14 02:14:17;;;;;;;0.00;0.00;;;22.60;61.30;;;;;;4222791;28;20047;-49
2021/06/14 02:16:41;;;;;;;0.10;0.10;;;22.60;61.30;;;;;;4223025;28;20047;-47
2021/06/14 02:19:05;;;;;;;0.00;0.00;;;22.60;61.30;;;;;;4208632;28;20098;-45
2021/06/14 02:21:28;;;;;;;0.10;0.10;;;22.60;61.40;;;;;;4222197;28;20062;-45
2021/06/14 02:23:51;;;;;;;0.00;0.00;;;22.60;61.40;;;;;;4193482;28;20052;-47
2021/06/14 02:26:13;;;;;;;0.00;0.00;;;22.60;61.40;;;;;;4221698;28;20048;-45
2021/06/14 02:28:36;;;;;;;0.00;0.00;;;22.60;61.50;;;;;;4176818;28;20185;-44
2021/06/14 02:30:58;;;;;;;0.00;0.00;;;22.60;61.50;;;;;;4208925;28;20071;-45
2021/06/14 02:33:20;;;;;;;0.00;0.00;;;22.50;61.40;;;;;;4206285;28;20052;-46
2021/06/14 02:36:03;;;;;;;0.20;0.20;;;22.50;61.40;;;;;;4207362;28;20063;-46
2021/06/14 02:38:28;;;;;;;0.15;0.15;;;22.50;61.40;;;;;;4207706;28;20048;-45
2021/06/14 02:40:51;;;;;;;0.20;0.20;;;22.50;61.40;;;;;;4206003;28;20063;-49
2021/06/14 02:43:13;;;;;;;0.10;0.10;;;22.50;61.40;;;;;;4206342;28;20070;-45
2021/06/14 02:45:36;;;;;;;0.00;0.00;;;22.50;61.50;;;;;;4207239;28;20055;-47
2021/06/14 02:48:06;;;;;;;0.10;0.10;;;22.50;61.50;;;;;;4222222;28;20043;-45
2021/06/14 02:50:32;;;;;;;0.00;0.00;;;22.50;61.50;;;;;;4222224;28;20075;-45
2021/06/14 02:52:56;;;;;;;0.25;0.25;;;22.50;61.60;;;;;;4193182;28;20078;-45
2021/06/14 02:55:23;;;;;;;0.00;0.00;;;22.50;61.60;;;;;;4221744;28;20079;-45
2021/06/14 02:57:50;;;;;;;0.15;0.15;;;22.50;61.60;;;;;;4227290;27;20808;-46
2021/06/14 03:00:14;;;;;;;0.20;0.20;;;22.50;61.60;;;;;;4226905;28;20131;-45
2021/06/14 03:02:38;;;;;;;0.40;0.40;;;22.50;61.60;;;;;;4209279;28;20704;-47
2021/06/14 03:05:04;;;;;;;0.45;0.45;;;22.50;61.60;;;;;;4210829;28;20765;-45
2021/06/14 03:07:29;;;;;;;0.00;0.00;;;22.40;61.60;;;;;;4194366;28;20041;-48
2021/06/14 03:09:53;;;;;;;0.00;0.00;;;22.50;62.50;;;;;;4193399;28;20828;-45
2021/06/14 03:12:16;;;;;;;0.00;0.00;;;22.40;61.60;;;;;;4210768;28;20055;-47
2021/06/14 03:14:39;;;;;;;0.00;0.00;;;22.40;61.60;;;;;;4209064;28;20052;-47
2021/06/14 03:17:04;;;;;;;0.00;0.00;;;22.40;61.60;;;;;;4226437;27;20136;-48
2021/06/14 03:19:33;;;;;;;0.00;0.00;;;22.40;61.70;;;;;;4225662;27;20043;-50
2021/06/14 03:22:03;;;;;;;0.00;0.00;;;22.40;61.60;;;;;;4209061;28;20370;-46
2021/06/14 03:24:27;;;;;;;0.00;0.00;;;22.40;61.60;;;;;;4218615;28;20048;-44
2021/06/14 03:26:50;;;;;;;0.00;0.00;;;22.40;61.60;;;;;;4226494;28;20051;-45
2021/06/14 03:29:18;;;;;;;0.00;0.00;;;22.40;61.60;;;;;;4224892;28;20059;-45
2021/06/14 03:31:40;;;;;;;0.10;0.10;;;22.40;61.60;;;;;;4226744;27;20047;-47
2021/06/14 03:34:02;;;;;;;0.00;0.00;;;22.40;61.70;;;;;;4213627;28;20621;-45
2021/06/14 03:36:29;;;;;;;0.00;0.00;;;22.40;61.80;;;;;;4226760;27;20052;-45
2021/06/14 03:38:52;;;;;;;0.00;0.00;;;22.40;61.80;;;;;;4226839;27;20165;-47
2021/06/14 03:41:14;;;;;;;0.00;0.00;;;22.40;61.80;;;;;;4225652;28;20040;-44
2021/06/14 03:43:38;;;;;;;0.00;0.00;;;22.40;61.80;;;;;;4226616;27;20043;-45
2021/06/14 03:46:01;;;;;;;0.03;0.03;;;22.40;61.90;;;;;;4225046;28;20142;-45
2021/06/14 03:48:23;;;;;;;0.00;0.00;;;22.40;61.90;;;;;;4226812;28;20047;-47
2021/06/14 03:50:45;;;;;;;0.75;0.75;;;22.40;62.00;;;;;;4226609;27;20052;-46
2021/06/14 03:53:09;;;;;;;0.00;0.00;;;22.40;62.00;;;;;;4209703;28;20712;-47
2021/06/14 03:55:31;;;;;;;0.10;0.10;;;22.40;62.00;;;;;;4221657;28;20158;-44
2021/06/14 03:57:54;;;;;;;0.00;0.00;;;22.40;62.00;;;;;;4226695;27;20058;-45
2021/06/14 04:00:18;;;;;;;0.60;0.47;;;22.40;62.00;;;;;;4226329;28;20056;-45
2021/06/14 04:02:41;;;;;;;0.05;0.05;;;22.40;62.00;;;;;;4210594;28;20055;-44
2021/06/14 04:05:04;;;;;;;0.00;0.00;;;22.40;62.90;;;;;;4195420;28;20054;-45
2021/06/14 04:07:43;;;;;;;0.47;0.47;;;22.40;62.00;;;;;;4222498;27;20050;-45
2021/06/14 04:10:06;;;;;;;0.05;0.05;;;22.40;62.00;;;;;;4226288;28;20762;-47
2021/06/14 04:12:29;;;;;;;0.63;0.63;;;22.30;61.90;;;;;;4226485;27;20075;-47
2021/06/14 04:14:51;;;;;;;0.00;0.00;;;22.40;62.00;;;;;;4226388;27;20126;-44
2021/06/14 04:17:14;;;;;;;3.08;1.27;;;22.40;62.10;;;;;;4224971;28;20047;-44
2021/06/14 04:19:37;;;;;;;0.00;0.00;;;22.40;62.00;;;;;;4226154;27;20051;-49
2021/06/14 04:21:59;;;;;;;0.50;0.50;;;22.40;62.00;;;;;;4226631;28;20096;-46
2021/06/14 04:24:21;;;;;;;0.38;0.32;;;22.40;62.00;;;;;;4209339;28;20190;-45
2021/06/14 04:26:44;;;;;;;0.00;0.00;;;22.40;61.90;;;;;;4224655;27;20417;-50
2021/06/14 04:29:06;;;;;;;0.22;0.22;;;22.40;61.90;;;;;;4210357;28;20044;-49
2021/06/14 04:31:28;;;;;;;0.00;0.00;;;22.40;61.90;;;;;;4226011;27;20077;-48
2021/06/14 04:33:52;;;;;;;0.30;0.30;;;22.40;61.90;;;;;;4226086;27;20055;-47
2021/06/14 04:36:14;;;;;;;0.00;0.00;;;22.40;61.80;;;;;;4226000;28;20051;-45
2021/06/14 04:38:36;;;;;;;0.00;0.00;;;22.40;61.70;;;;;;4226220;27;20130;-46
2021/06/14 04:40:58;;;;;;;0.43;0.43;;;22.40;61.70;;;;;;4225532;27;20147;-45
2021/06/14 04:43:20;;;;;;;0.08;0.08;;;22.40;61.60;;;;;;4225966;27;20410;-49
2021/06/14 04:45:42;;;;;;;0.73;0.73;;;22.40;61.60;;;;;;4225495;27;20489;-47
2021/06/14 04:48:05;;;;;;;0.00;0.00;;;22.50;61.50;;;;;;4225652;27;20059;-48
2021/06/14 04:50:29;;;;;;;0.10;0.10;;;22.50;61.40;;;;;;4209346;28;20577;-46
2021/06/14 04:52:51;;;;;;;0.20;0.20;;;22.50;61.30;;;;;;4209100;28;20460;-48
2021/06/14 04:55:13;;;;;;;0.10;0.10;;;22.50;61.20;;;;;;4221808;28;20501;-47
2021/06/14 04:57:35;;;;;;;0.20;0.20;;;22.50;61.20;;;;;;4225913;27;20044;-45
2021/06/14 04:59:57;;;;;;;0.15;0.15;;;22.50;61.10;;;;;;4215725;28;20496;-45
2021/06/14 05:02:19;;;;;;;0.00;0.00;;;22.50;61.00;;;;;;4225809;27;20067;-49
2021/06/14 05:04:41;;;;;;;2.20;0.30;;;22.60;61.10;;;;;;4225317;28;20042;-47
2021/06/14 05:07:05;;;;;;;0.00;0.00;;;22.50;61.00;;;;;;4225433;27;20126;-46
2021/06/14 05:09:27;;;;;;;0.00;0.00;;;22.50;61.00;;;;;;4225742;27;20043;-45
2021/06/14 05:11:49;;;;;;;0.38;0.38;;;22.50;61.00;;;;;;4225560;27;20512;-48
2021/06/14 05:14:12;;;;;;;0.43;0.43;;;22.60;61.10;;;;;;4224998;28;20051;-45
2021/06/14 05:16:34;;;;;;;0.03;0.03;;;22.60;61.00;;;;;;4225332;27;20059;-45
2021/06/14 05:18:56;;;;;;;0.00;0.00;;;22.80;60.80;;;;;;4224595;27;20048;-47
2021/06/14 05:21:18;;;;;;;0.10;0.10;;;22.90;60.10;;;;;;4225618;27;20055;-46
2021/06/14 05:23:41;;;;;;;0.30;0.30;;;23.20;59.80;;;;;;4194267;28;20139;-48
2021/06/14 05:26:03;;;;;;;1.45;0.57;;;23.40;59.30;;;;;;4224971;28;20103;-51
2021/06/14 05:28:26;;;;;;;0.00;0.00;;;23.50;59.10;;;;;;4224456;28;20127;-52
2021/06/14 05:30:48;;;;;;;0.38;0.38;;;23.60;59.60;;;;;;4225081;28;20137;-46
2021/06/14 05:33:10;;;;;;;0.00;0.00;;;23.70;58.70;;;;;;4193937;28;20514;-50
2021/06/14 05:35:33;;;;;;;0.95;0.95;;;23.70;58.50;;;;;;4219317;27;20082;-46
2021/06/14 05:37:55;;;;;;;0.22;0.22;;;23.70;58.50;;;;;;4225149;27;20575;-48
2021/06/14 05:40:19;;;;;;;0.77;0.77;;;23.70;58.40;;;;;;4224774;27;20056;-47
2021/06/14 05:42:41;;;;;;;0.35;0.35;;;23.70;58.30;;;;;;4224903;28;20055;-50
2021/06/14 05:45:04;;;;;;;34.70;2.28;;;23.70;58.30;;;;;;4225003;28;20047;-47
2021/06/14 05:47:26;;;;;;;0.25;0.25;;;23.70;58.30;;;;;;4225229;27;20039;-45
2021/06/14 05:49:49;;;;;;;0.65;0.65;;;23.60;58.30;;;;;;4224633;28;20498;-46
2021/06/14 05:52:11;;;;;;;0.00;0.00;;;23.60;58.50;;;;;;4208642;28;20134;-45
2021/06/14 05:54:33;;;;;;;0.10;0.10;;;23.60;58.50;;;;;;4222207;27;20043;-47
2021/06/14 05:57:00;;;;;;;0.73;0.73;;;23.50;58.40;;;;;;4209761;28;20134;-44
2021/06/14 05:59:22;;;;;;;0.00;0.00;;;23.50;58.40;;;;;;4224249;28;20047;-47
2021/06/14 06:01:44;;;;;;;0.00;0.00;;;23.40;58.50;;;;;;4192372;28;20098;-45
2021/06/14 06:04:06;;;;;;;0.00;0.00;;;23.40;58.40;;;;;;4204426;28;20048;-48
2021/06/14 06:06:28;;;;;;;0.45;0.45;;;23.30;58.40;;;;;;4191597;28;20045;-50
2021/06/14 06:08:50;;;;;;;0.00;0.00;;;23.30;58.40;;;;;;4191314;28;20036;-48
2021/06/14 06:11:13;;;;;;;0.43;0.43;;;23.30;58.40;;;;;;4199949;28;20062;-48
2021/06/14 06:13:36;;;;;;;0.00;0.00;;;23.30;58.40;;;;;;4224581;28;20075;-50
2021/06/14 06:15:58;;;;;;;0.15;0.15;;;23.30;58.40;;;;;;4221790;28;20050;-50
2021/06/14 06:18:20;;;;;;;0.08;0.08;;;23.30;58.20;;;;;;4224706;28;20082;-49
2021/06/14 06:20:43;;;;;;;0.55;0.28;;;23.30;58.00;;;;;;4224576;28;20144;-47
2021/06/14 06:23:05;;;;;;;0.13;0.13;;;23.40;58.00;;;;;;4208650;28;20068;-48
2021/06/14 06:25:28;;;;;;;0.10;0.10;;;23.40;58.10;;;;;;4208152;28;20085;-50
2021/06/14 06:27:51;;;;;;;0.03;0.03;;;23.50;58.70;;;;;;4216797;28;20047;-49
2021/06/14 06:30:19;;;;;;;0.08;0.08;;;23.50;58.90;;;;;;4224354;28;20048;-50
2021/06/14 06:32:41;;;;;;;0.98;0.93;;;23.50;59.00;;;;;;4227306;28;20792;-48
2021/06/14 06:35:04;;;;;;;0.10;0.10;;;23.50;59.10;;;;;;4221538;28;20135;-51
2021/06/14 06:37:26;;;;;;;0.00;0.00;;;23.40;58.80;;;;;;4221556;27;20150;-49
2021/06/14 06:39:48;;;;;;;2.83;1.45;;;23.50;58.70;;;;;;4215673;28;20044;-48
2021/06/14 06:42:11;;;;;;;0.22;0.22;;;23.50;58.40;;;;;;4210885;28;20753;-49
2021/06/14 06:44:33;;;;;;;0.30;0.30;;;23.70;58.10;;;;;;4226393;27;20058;-46
2021/06/14 06:46:56;;;;;;;0.00;0.00;;;23.80;58.10;;;;;;4227631;27;20044;-48
2021/06/14 06:49:18;;;;;;;0.10;0.10;;;23.90;57.70;;;;;;4227028;28;20108;-50
2021/06/14 06:51:40;;;;;;;0.28;0.28;;;24.00;57.40;;;;;;4226736;28;20047;-50
2021/06/14 06:54:14;;;;;;;0.20;0.20;;;24.00;57.10;;;;;;4227016;28;20134;-47
2021/06/14 06:56:41;;;;;;;0.05;0.05;;;24.10;56.40;;;;;;4226613;28;20047;-46
2021/06/14 06:59:03;;;;;;;0.00;0.00;;;24.20;56.30;;;;;;4226610;28;20051;-51
2021/06/14 07:01:26;;;;;;;0.10;0.10;;;24.30;56.30;;;;;;4226279;28;20150;-46
2021/06/14 07:03:49;;;;;;;0.05;0.05;;;24.30;55.70;;;;;;4200635;28;20131;-47
2021/06/14 07:06:11;;;;;;;0.00;0.00;;;24.40;54.90;;;;;;4227569;27;20641;-48
2021/06/14 07:08:33;;;;;;;0.00;0.00;;;24.40;54.90;;;;;;4199129;28;20056;-47
2021/06/14 07:10:56;;;;;;;0.00;0.00;;;24.50;54.40;;;;;;4227028;28;20047;-48
2021/06/14 07:13:17;;;;;;;0.03;0.03;;;24.50;54.40;;;;;;4226869;28;20055;-49
2021/06/14 07:15:39;;;;;;;0.00;0.00;;;24.50;53.90;;;;;;4226335;28;20055;-47
2021/06/14 07:18:02;;;;;;;0.38;0.38;;;24.50;53.50;;;;;;4224744;28;20043;-47
2021/06/14 07:20:28;;;;;;;1.75;1.65;;;24.50;53.30;;;;;;4227272;27;20554;-49
2021/06/14 07:22:50;;;;;;;0.00;0.00;;;24.50;53.00;;;;;;4227364;27;20455;-48
2021/06/14 07:25:13;;;;;;;0.20;0.20;;;24.50;52.80;;;;;;4226535;28;20400;-47
2021/06/14 07:27:36;;;;;;;0.38;0.38;;;24.60;53.10;;;;;;4216658;28;20063;-47
2021/06/14 07:29:59;;;;;;;0.22;0.22;;;24.60;52.90;;;;;;4235109;27;20056;-45
2021/06/14 07:32:21;;;;;;;0.13;0.13;;;24.60;52.90;;;;;;4211755;28;20051;-51
2021/06/14 07:34:43;;;;;;;0.28;0.28;;;24.60;52.60;;;;;;4227091;27;20051;-47
2021/06/14 07:37:07;;;;;;;0.00;0.00;;;24.60;52.60;;;;;;4226100;27;20146;-52
2021/06/14 07:39:29;;;;;;;0.20;0.20;;;24.50;52.30;;;;;;4226440;27;20086;-49
2021/06/14 07:41:52;;;;;;;0.10;0.10;;;24.50;52.30;;;;;;4226197;28;20044;-53
2021/06/14 07:44:14;;;;;;;0.20;0.20;;;24.50;52.30;;;;;;4209319;28;20105;-51
2021/06/14 07:46:36;;;;;;;1.52;0.35;;;24.50;52.30;;;;;;4224888;28;20134;-48
2021/06/14 07:48:58;;;;;;;0.10;0.10;;;24.50;52.40;;;;;;4226763;27;20060;-48
2021/06/14 07:51:20;;;;;;;1.17;0.88;;;24.50;52.60;;;;;;4226141;27;20061;-49
2021/06/14 07:53:50;;;;;;;0.30;0.30;;;24.50;52.60;;;;;;4216316;27;20050;-48
2021/06/14 07:56:12;;;;;;;0.10;0.10;;;24.50;52.70;;;;;;4208588;27;20131;-53
2021/06/14 07:58:34;;;;;;;0.30;0.30;;;24.40;52.60;;;;;;4225329;27;20080;-50
2021/06/14 08:00:56;;;;;;;0.15;0.15;;;24.50;52.80;;;;;;4209736;28;20058;-49
2021/06/14 08:03:20;;;;;;;0.38;0.38;;;24.40;52.70;;;;;;4225867;28;20463;-47
2021/06/14 08:05:44;;;;;;;0.03;0.03;;;24.40;52.70;;;;;;4226376;27;20051;-51
2021/06/14 08:08:07;;;;;;;2.83;0.73;;;24.40;52.60;;;;;;4226464;27;20062;-46
2021/06/14 08:10:31;;;;;;;0.43;0.32;;;24.40;52.40;;;;;;4226719;27;20131;-46
2021/06/14 08:12:53;;;;;;;1.35;1.25;;;24.40;52.40;;;;;;4225977;27;20056;-49
2021/06/14 08:15:17;;;;;;;0.10;0.10;;;24.40;52.30;;;;;;4226085;27;20047;-50
2021/06/14 08:17:39;;;;;;;0.00;0.00;;;24.30;52.20;;;;;;4226039;27;20048;-49
2021/06/14 08:20:07;;;;;;;0.00;0.00;;;24.30;52.10;;;;;;4225973;28;20044;-52
2021/06/14 08:22:48;;;;;;;2.35;1.08;;;24.40;52.30;;;;;;4226063;27;20491;-47
2021/06/14 08:25:11;;;;;;;0.00;0.00;;;24.30;52.40;;;;;;4225719;27;20812;-52
2021/06/14 08:27:38;;;;;;;0.08;0.08;;;24.30;52.50;;;;;;4226224;27;20051;-50
2021/06/14 08:30:00;;;;;;;0.00;0.00;;;24.30;52.70;;;;;;4225339;27;20495;-51
2021/06/14 08:32:22;;;;;;;0.20;0.20;;;24.30;52.90;;;;;;4226405;27;20055;-49
2021/06/14 08:34:44;;;;;;;0.65;0.65;;;24.30;52.90;;;;;;4224884;27;20100;-48
2021/06/14 08:37:06;;;;;;;0.80;0.55;;;24.40;53.00;;;;;;4225809;27;20046;-46
2021/06/14 08:39:28;;;;;;;2.65;1.08;;;24.30;53.00;;;;;;4209196;28;20048;-47
2021/06/14 08:41:51;;;;;;;0.22;0.22;;;24.30;53.10;;;;;;4209344;28;20048;-47
2021/06/14 08:44:14;;;;;;;0.20;0.20;;;24.40;53.10;;;;;;4217654;27;20101;-46
2021/06/14 08:46:37;;;;;;;0.30;0.30;;;24.40;52.90;;;;;;4225281;28;20505;-50
2021/06/14 08:49:00;;;;;;;0.88;0.85;;;24.40;52.50;;;;;;4225948;28;20845;-46
2021/06/14 08:51:23;;;;;;;1.30;1.25;;;24.40;52.00;;;;;;4225999;27;20052;-47
2021/06/14 08:53:51;;;;;;;0.00;0.00;;;24.50;51.70;;;;;;4224924;27;20409;-51
2021/06/14 08:56:16;;;;;;;0.20;0.20;;;24.50;51.80;;;;;;4225830;27;20443;-50
2021/06/14 08:58:38;;;;;;;0.17;0.17;;;24.50;51.70;;;;;;4225993;27;20043;-47
2021/06/14 09:01:03;;;;;;;1.08;1.08;;;24.50;51.80;;;;;;4226038;27;20497;-49
2021/06/14 09:03:26;;;;;;;0.10;0.10;;;24.50;51.60;;;;;;4225715;27;20059;-47
2021/06/14 09:05:48;;;;;;;0.00;0.00;;;24.50;51.70;;;;;;4212208;28;20055;-49
2021/06/14 09:08:10;;;;;;;0.38;0.38;;;24.50;51.80;;;;;;4225887;27;20067;-49
2021/06/14 09:10:34;;;;;;;0.00;0.00;;;24.60;51.70;;;;;;4225913;27;20047;-47
2021/06/14 09:13:10;;;;;;;0.28;0.28;;;24.60;51.80;;;;;;4225890;27;20130;-52
2021/06/14 09:15:32;;;;;;;0.60;0.60;;;24.60;51.70;;;;;;4225046;27;20040;-47
2021/06/14 09:17:56;;;;;;;1.00;1.00;;;24.60;51.90;;;;;;4225381;27;20051;-50
2021/06/14 09:20:18;;;;;;;0.08;0.08;;;24.60;51.60;;;;;;4225742;28;20059;-49
2021/06/14 09:22:41;;;;;;;0.20;0.20;;;24.70;52.20;;;;;;4225963;28;20055;-47
2021/06/14 09:25:07;;;;;;;2.30;1.25;;;24.70;51.60;;;;;;4225000;27;20043;-50
2021/06/14 09:27:31;;;;;;;0.00;0.00;;;24.70;51.50;;;;;;4225420;27;20051;-49
2021/06/14 09:29:53;;;;;;;0.00;0.00;;;24.80;51.60;;;;;;4225130;27;20130;-47
2021/06/14 09:32:16;;;;;;;0.00;0.00;;;24.80;51.50;;;;;;4225514;27;20067;-48
2021/06/14 09:34:42;;;;;;;0.20;0.20;;;24.80;51.40;;;;;;4225154;27;20054;-49
2021/06/14 09:37:06;;;;;;;0.10;0.10;;;24.80;51.30;;;;;;4225099;28;20040;-53
2021/06/14 09:39:35;;;;;;;0.93;0.93;;;24.80;51.30;;;;;;4225361;28;20051;-52
2021/06/14 09:41:57;;;;;;;0.03;0.03;;;24.90;51.30;;;;;;4224842;27;20051;-53
2021/06/14 09:44:28;;;;;;;0.10;0.10;;;24.80;51.20;;;;;;4224740;28;20138;-51
2021/06/14 09:47:00;;;;;;;0.40;0.40;;;24.90;51.10;;;;;;4224953;28;20048;-50
2021/06/14 09:49:22;;;;;;;0.00;0.00;;;24.90;51.10;;;;;;4224829;27;20414;-53
2021/06/14 09:51:51;;;;;;;0.00;0.00;;;24.90;51.00;;;;;;4225130;27;20409;-51
2021/06/14 09:54:13;;;;;;;0.45;0.40;;;24.90;50.90;;;;;;4224696;27;20043;-50
2021/06/14 09:56:36;;;;;;;0.00;0.00;;;24.90;50.80;;;;;;4208903;28;20093;-49
2021/06/14 09:59:00;;;;;;;0.52;0.52;;;25.00;50.90;;;;;;4224331;28;20548;-47
2021/06/14 10:01:34;;;;;;;0.00;0.00;;;25.00;50.90;;;;;;4209637;28;20040;-50
2021/06/14 10:03:58;;;;;;;1.13;0.85;;;25.00;51.60;;;;;;4223315;28;20052;-51
2021/06/14 10:06:33;;;;;;;0.00;0.00;;;25.00;50.90;;;;;;4223549;27;20513;-51
2021/06/14 10:08:58;;;;;;;0.10;0.10;;;25.00;51.10;;;;;;4222796;28;20044;-50
2021/06/14 10:11:20;;;;;;;0.00;0.00;;;25.00;50.90;;;;;;4224817;28;20052;-52
2021/06/14 10:13:43;;;;;;;0.10;0.10;;;25.10;51.50;;;;;;4224230;28;20070;-51
2021/06/14 10:16:07;;;;;;;1.65;1.25;;;25.10;50.90;;;;;;4221674;28;20100;-50
2021/06/14 10:18:35;;;;;;;0.00;0.00;;;25.10;50.80;;;;;;4223243;28;20078;-50
2021/06/14 10:20:58;;;;;;;0.25;0.25;;;25.10;50.60;;;;;;4205943;28;20047;-47
2021/06/14 10:23:20;;;;;;;0.20;0.20;;;25.10;50.50;;;;;;4241168;28;20489;-49
2021/06/14 10:25:47;;;;;;;0.00;0.00;;;25.20;50.50;;;;;;4210005;28;20047;-49
2021/06/14 10:28:09;;;;;;;0.52;0.52;;;25.10;50.40;;;;;;4223772;28;20047;-48
2021/06/14 10:30:32;;;;;;;0.75;0.75;;;25.10;51.80;;;;;;4224350;28;20043;-48
2021/06/14 10:32:55;;;;;;;3.30;0.60;;;25.20;51.30;;;;;;4223836;28;20044;-48
2021/06/14 10:35:20;;;;;;;0.20;0.20;;;25.20;51.50;;;;;;4223764;28;20054;-47
2021/06/14 10:37:44;;;;;;;0.17;0.17;;;25.10;51.60;;;;;;4223637;28;20103;-49
2021/06/14 10:40:09;;;;;;;0.10;0.10;;;25.20;51.60;;;;;;4222229;28;20051;-48
2021/06/14 10:42:32;;;;;;;0.20;0.20;;;25.20;51.40;;;;;;4213716;28;20051;-48
2021/06/14 10:44:55;;;;;;;0.43;0.43;;;25.20;51.10;;;;;;4224059;28;20473;-50
2021/06/14 10:47:19;;;;;;;0.17;0.17;;;25.30;51.30;;;;;;4220291;28;20447;-47
2021/06/14 10:49:42;;;;;;;0.20;0.20;;;25.30;51.30;;;;;;4223659;28;20066;-46
2021/06/14 10:52:06;;;;;;;0.65;0.63;;;25.30;51.10;;;;;;4224109;28;20052;-49
2021/06/14 10:54:38;;;;;;;0.75;0.75;;;25.30;50.90;;;;;;4224116;28;20549;-48
2021/06/14 10:57:04;;;;;;;0.30;0.30;;;25.30;50.80;;;;;;4223981;28;20044;-46
2021/06/14 10:59:36;;;;;;;0.38;0.38;;;25.30;50.70;;;;;;4224389;28;20142;-48
2021/06/14 11:02:05;;;;;;;0.73;0.73;;;25.40;50.70;;;;;;4206873;28;20498;-46
2021/06/14 11:04:29;;;;;;;0.38;0.38;;;25.40;50.60;;;;;;4208004;28;20060;-50
2021/06/14 11:06:53;;;;;;;0.35;0.35;;;25.40;50.50;;;;;;4223873;28;20058;-47
2021/06/14 11:09:15;;;;;;;0.20;0.20;;;25.50;50.60;;;;;;4224072;28;20036;-48
2021/06/14 11:11:50;;;;;;;0.20;0.20;;;25.50;50.50;;;;;;4223537;28;20043;-49
2021/06/14 11:14:12;;;;;;;0.10;0.10;;;25.50;50.40;;;;;;4223760;28;20071;-50
2021/06/14 11:16:40;;;;;;;0.65;0.65;;;25.50;50.30;;;;;;4223485;28;20055;-45
2021/06/14 11:19:05;;;;;;;0.10;0.10;;;25.50;50.30;;;;;;4210467;28;20075;-46
2021/06/14 11:21:28;;;;;;;1.80;1.45;;;25.60;50.40;;;;;;4205048;28;20426;-50
2021/06/14 11:23:53;;;;;;;0.30;0.30;;;25.50;50.40;;;;;;4194356;28;20514;-48
2021/06/14 11:26:27;;;;;;;0.35;0.35;;;25.60;50.30;;;;;;4220734;28;20048;-49
2021/06/14 11:28:49;;;;;;;1.30;1.05;;;25.60;50.10;;;;;;4226940;27;20052;-48
2021/06/14 11:31:16;;;;;;;0.00;0.00;;;25.60;50.10;;;;;;4210849;28;20128;-47
2021/06/14 11:33:40;;;;;;;0.47;0.47;;;25.60;50.10;;;;;;4226472;27;20039;-46
2021/06/14 11:36:14;;;;;;;0.63;0.63;;;25.60;50.00;;;;;;4227160;27;20067;-46
2021/06/14 11:38:37;;;;;;;0.00;0.00;;;25.60;50.00;;;;;;4226805;28;20096;-48
2021/06/14 11:40:59;;;;;;;0.22;0.22;;;25.70;49.80;;;;;;4227107;27;20049;-49
2021/06/14 11:43:22;;;;;;;0.10;0.10;;;25.70;50.00;;;;;;4226658;27;20052;-52
2021/06/14 11:45:46;;;;;;;0.13;0.13;;;25.70;50.10;;;;;;4226447;28;20466;-46
2021/06/14 11:48:21;;;;;;;0.00;0.00;;;25.70;50.10;;;;;;4226475;27;20079;-46
2021/06/14 11:50:44;;;;;;;1.80;1.67;;;25.70;50.20;;;;;;4226645;28;20554;-47
2021/06/14 11:53:07;;;;;;;0.10;0.10;;;25.70;50.10;;;;;;4226317;27;20051;-49
2021/06/14 11:55:32;;;;;;;0.35;0.35;;;25.70;50.10;;;;;;4224751;27;20047;-47
2021/06/14 11:57:56;;;;;;;0.25;0.25;;;25.70;50.10;;;;;;4226687;28;20097;-49
2021/06/14 12:00:28;;;;;;;0.00;0.00;;;25.70;49.80;;;;;;4226144;27;20116;-47
2021/06/14 12:02:50;;;;;;;0.32;0.32;;;25.70;49.80;;;;;;4226051;27;20058;-45
2021/06/14 12:05:13;;;;;;;0.00;0.00;;;25.80;49.80;;;;;;4226101;28;20051;-50
2021/06/14 12:07:41;;;;;;;0.00;0.00;;;25.80;49.70;;;;;;4208233;28;20071;-48
2021/06/14 12:10:07;;;;;;;1.13;1.13;;;25.90;49.90;;;;;;4208571;28;20048;-48
2021/06/14 12:12:29;;;;;;;0.00;0.00;;;25.90;49.80;;;;;;4217997;28;20059;-47
2021/06/14 12:14:52;;;;;;;1.30;0.40;;;25.90;49.70;;;;;;4226260;27;20040;-44
2021/06/14 12:17:15;;;;;;;0.93;0.93;;;25.90;49.70;;;;;;4215746;27;20562;-47
2021/06/14 12:19:39;;;;;;;0.45;0.45;;;25.90;49.70;;;;;;4225378;28;20043;-50
2021/06/14 12:22:06;;;;;;;0.00;0.00;;;25.90;49.70;;;;;;4226051;28;20066;-46
2021/06/14 12:24:32;;;;;;;0.13;0.13;;;25.90;49.70;;;;;;4210175;28;20048;-46
2021/06/14 12:27:01;;;;;;;0.00;0.00;;;26.00;49.80;;;;;;4213639;27;20131;-48
2021/06/14 12:29:24;;;;;;;0.30;0.30;;;26.00;49.80;;;;;;4221093;27;20130;-49
2021/06/14 12:31:47;;;;;;;0.00;0.00;;;26.00;50.40;;;;;;4213649;28;20055;-52